sensor_id;sensor_type;location;lat;lon;timestamp;temperature;humidity
65036;DHT22;51603;49.300;8.880;2023-01-28T00:00:54;1.60;99.90
65036;DHT22;51603;49.300;8.880;2023-01-28T00:03:20;1.60;99.90
65036;DHT22;51603;49.300;8.880;2023-01-28T00:05:46;1.50;99.90
65036;DHT22;51603;49.300;8.880;2023-01-28T00:08:11;1.50;99.90
65036;DHT22;51603;49.300;8.880;2023-01-28T00:10:39;1.60;99.90
65036;DHT22;51603;49.300;8.880;2023-01-28T00:13:05;1.60;99.90
65036;DHT22;51603;49.300;8.880;2023-01-28T00:15:31;1.50;99.90
65036;DHT22;51603;49.300;8.880;2023-01-28T00:17:56;1.50;99.90
65036;DHT22;51603;49.300;8.880;2023-01-28T00:20:22;1.50;99.90
65036;DHT22;51603;49.300;8.880;2023-01-28T00:22:48;1.50;99.90
65036;DHT22;51603;49.300;8.880;2023-01-28T00:25:14;1.60;99.90
65036;DHT22;51603;49.300;8.880;2023-01-28T00:27:40;1.60;99.90
65036;DHT22;51603;49.300;8.880;2023-01-28T00:30:05;1.60;99.90
65036;DHT22;51603;49.300;8.880;2023-01-28T00:32:31;1.60;99.90
65036;DHT22;51603;49.300;8.880;2023-01-28T00:34:57;1.60;99.90
65036;DHT22;51603;49.300;8.880;2023-01-28T00:37:22;1.60;99.90
65036;DHT22;51603;49.300;8.880;2023-01-28T00:39:48;1.60;99.90
65036;DHT22;51603;49.300;8.880;2023-01-28T00:42:14;1.60;99.90
65036;DHT22;51603;49.300;8.880;2023-01-28T00:44:40;1.60;99.90
65036;DHT22;51603;49.300;8.880;2023-01-28T00:47:06;1.60;99.90
65036;DHT22;51603;49.300;8.880;2023-01-28T00:49:32;1.60;99.90
65036;DHT22;51603;49.300;8.880;2023-01-28T00:51:57;1.60;99.90
65036;DHT22;51603;49.300;8.880;2023-01-28T00:54:23;1.60;99.90
65036;DHT22;51603;49.300;8.880;2023-01-28T00:56:48;1.60;99.90
65036;DHT22;51603;49.300;8.880;2023-01-28T00:59:14;1.60;99.90
65036;DHT22;51603;49.300;8.880;2023-01-28T01:01:40;1.60;99.90
65036;DHT22;51603;49.300;8.880;2023-01-28T01:04:06;1.60;99.90
65036;DHT22;51603;49.300;8.880;2023-01-28T01:06:34;1.60;99.90
65036;DHT22;51603;49.300;8.880;2023-01-28T01:09:00;1.60;99.90
65036;DHT22;51603;49.300;8.880;2023-01-28T01:11:26;1.60;99.90
65036;DHT22;51603;49.300;8.880;2023-01-28T01:13:59;1.60;99.90
65036;DHT22;51603;49.300;8.880;2023-01-28T01:16:28;1.60;99.90
65036;DHT22;51603;49.300;8.880;2023-01-28T01:18:55;1.60;99.90
65036;DHT22;51603;49.300;8.880;2023-01-28T01:21:23;1.60;99.90
65036;DHT22;51603;49.300;8.880;2023-01-28T01:23:49;1.60;99.90
65036;DHT22;51603;49.300;8.880;2023-01-28T01:26:15;1.60;99.90
65036;DHT22;51603;49.300;8.880;2023-01-28T01:28:41;1.60;99.90
65036;DHT22;51603;49.300;8.880;2023-01-28T01:31:13;1.60;99.90
65036;DHT22;51603;49.300;8.880;2023-01-28T01:33:43;1.60;99.90
65036;DHT22;51603;49.300;8.880;2023-01-28T01:36:11;1.60;99.90
65036;DHT22;51603;49.300;8.880;2023-01-28T01:38:37;1.60;99.90
65036;DHT22;51603;49.300;8.880;2023-01-28T01:41:04;1.50;99.90
65036;DHT22;51603;49.300;8.880;2023-01-28T01:43:51;1.60;99.90
65036;DHT22;51603;49.300;8.880;2023-01-28T01:49:14;1.60;99.90
65036;DHT22;51603;49.300;8.880;2023-01-28T01:51:43;1.60;99.90
65036;DHT22;51603;49.300;8.880;2023-01-28T01:54:09;1.60;99.90
65036;DHT22;51603;49.300;8.880;2023-01-28T01:56:40;1.60;99.90
65036;DHT22;51603;49.300;8.880;2023-01-28T01:59:11;1.60;99.90
65036;DHT22;51603;49.300;8.880;2023-01-28T02:01:37;1.50;99.90
65036;DHT22;51603;49.300;8.880;2023-01-28T02:04:05;1.50;99.90
65036;DHT22;51603;49.300;8.880;2023-01-28T02:06:34;1.50;99.90
65036;DHT22;51603;49.300;8.880;2023-01-28T02:09:00;1.60;99.90
65036;DHT22;51603;49.300;8.880;2023-01-28T02:11:29;1.60;99.90
65036;DHT22;51603;49.300;8.880;2023-01-28T02:13:59;1.60;99.90
65036;DHT22;51603;49.300;8.880;2023-01-28T02:16:27;1.60;99.90
65036;DHT22;51603;49.300;8.880;2023-01-28T02:18:53;1.60;99.90
65036;DHT22;51603;49.300;8.880;2023-01-28T02:24:23;1.70;99.90
65036;DHT22;51603;49.300;8.880;2023-01-28T02:27:18;1.70;99.90
65036;DHT22;51603;49.300;8.880;2023-01-28T02:32:39;1.80;99.90
65036;DHT22;51603;49.300;8.880;2023-01-28T02:35:30;1.80;99.90
65036;DHT22;51603;49.300;8.880;2023-01-28T02:38:10;1.70;99.90
65036;DHT22;51603;49.300;8.880;2023-01-28T02:40:38;1.80;99.90
65036;DHT22;51603;49.300;8.880;2023-01-28T02:43:43;1.80;99.90
65036;DHT22;51603;49.300;8.880;2023-01-28T02:46:33;1.70;99.90
65036;DHT22;51603;49.300;8.880;2023-01-28T02:52:31;1.70;99.90
65036;DHT22;51603;49.300;8.880;2023-01-28T02:55:37;1.80;99.90
65036;DHT22;51603;49.300;8.880;2023-01-28T02:58:15;1.80;99.90
65036;DHT22;51603;49.300;8.880;2023-01-28T03:00:49;1.80;99.90
65036;DHT22;51603;49.300;8.880;2023-01-28T03:03:50;1.80;99.90
65036;DHT22;51603;49.300;8.880;2023-01-28T03:06:21;1.80;99.90
65036;DHT22;51603;49.300;8.880;2023-01-28T03:08:53;1.80;99.90
65036;DHT22;51603;49.300;8.880;2023-01-28T03:11:42;1.80;99.90
65036;DHT22;51603;49.300;8.880;2023-01-28T03:14:29;1.80;99.90
65036;DHT22;51603;49.300;8.880;2023-01-28T03:17:20;1.80;99.90
65036;DHT22;51603;49.300;8.880;2023-01-28T03:20:06;1.80;99.90
65036;DHT22;51603;49.300;8.880;2023-01-28T03:22:53;1.80;99.90
65036;DHT22;51603;49.300;8.880;2023-01-28T03:25:42;1.80;99.90
65036;DHT22;51603;49.300;8.880;2023-01-28T03:28:28;1.80;99.90
65036;DHT22;51603;49.300;8.880;2023-01-28T03:31:16;1.80;99.90
65036;DHT22;51603;49.300;8.880;2023-01-28T03:34:02;1.80;99.90
65036;DHT22;51603;49.300;8.880;2023-01-28T03:36:47;1.80;99.90
65036;DHT22;51603;49.300;8.880;2023-01-28T03:39:17;1.80;99.90
65036;DHT22;51603;49.300;8.880;2023-01-28T03:42:13;1.80;99.90
65036;DHT22;51603;49.300;8.880;2023-01-28T03:44:39;1.80;99.90
65036;DHT22;51603;49.300;8.880;2023-01-28T03:47:25;1.80;99.90
65036;DHT22;51603;49.300;8.880;2023-01-28T03:49:52;1.90;99.90
65036;DHT22;51603;49.300;8.880;2023-01-28T03:52:23;1.90;99.90
65036;DHT22;51603;49.300;8.880;2023-01-28T03:54:49;1.90;99.90
65036;DHT22;51603;49.300;8.880;2023-01-28T03:57:18;1.90;99.90
65036;DHT22;51603;49.300;8.880;2023-01-28T03:59:44;1.80;99.90
65036;DHT22;51603;49.300;8.880;2023-01-28T04:02:11;1.90;99.90
65036;DHT22;51603;49.300;8.880;2023-01-28T04:04:38;1.80;99.90
65036;DHT22;51603;49.300;8.880;2023-01-28T04:07:04;1.80;99.90
65036;DHT22;51603;49.300;8.880;2023-01-28T04:09:30;1.80;99.90
65036;DHT22;51603;49.300;8.880;2023-01-28T04:11:56;1.80;99.90
65036;DHT22;51603;49.300;8.880;2023-01-28T04:14:21;1.80;99.90
65036;DHT22;51603;49.300;8.880;2023-01-28T04:16:47;1.80;99.90
65036;DHT22;51603;49.300;8.880;2023-01-28T04:19:13;1.80;99.90
65036;DHT22;51603;49.300;8.880;2023-01-28T04:21:39;1.80;99.90
65036;DHT22;51603;49.300;8.880;2023-01-28T04:24:05;1.80;99.90
65036;DHT22;51603;49.300;8.880;2023-01-28T04:26:31;1.80;99.90
65036;DHT22;51603;49.300;8.880;2023-01-28T04:28:57;1.80;99.90
65036;DHT22;51603;49.300;8.880;2023-01-28T04:31:22;1.80;99.90
65036;DHT22;51603;49.300;8.880;2023-01-28T04:33:49;1.80;99.90
65036;DHT22;51603;49.300;8.880;2023-01-28T04:36:15;1.80;99.90
65036;DHT22;51603;49.300;8.880;2023-01-28T04:38:40;1.80;99.90
65036;DHT22;51603;49.300;8.880;2023-01-28T04:41:06;1.80;99.90
65036;DHT22;51603;49.300;8.880;2023-01-28T04:43:31;1.80;99.90
65036;DHT22;51603;49.300;8.880;2023-01-28T04:45:57;1.80;99.90
65036;DHT22;51603;49.300;8.880;2023-01-28T04:48:22;1.80;99.90
65036;DHT22;51603;49.300;8.880;2023-01-28T04:50:48;1.90;99.90
65036;DHT22;51603;49.300;8.880;2023-01-28T04:53:13;1.90;99.90
65036;DHT22;51603;49.300;8.880;2023-01-28T04:55:39;1.90;99.90
65036;DHT22;51603;49.300;8.880;2023-01-28T04:58:05;1.90;99.90
65036;DHT22;51603;49.300;8.880;2023-01-28T05:00:31;1.90;99.90
65036;DHT22;51603;49.300;8.880;2023-01-28T05:02:56;1.90;99.90
65036;DHT22;51603;49.300;8.880;2023-01-28T05:05:22;1.90;99.90
65036;DHT22;51603;49.300;8.880;2023-01-28T05:07:55;2.00;99.90
65036;DHT22;51603;49.300;8.880;2023-01-28T05:10:21;2.00;99.90
65036;DHT22;51603;49.300;8.880;2023-01-28T05:12:48;2.00;99.90
65036;DHT22;51603;49.300;8.880;2023-01-28T05:15:15;2.00;99.90
65036;DHT22;51603;49.300;8.880;2023-01-28T05:17:40;2.00;99.90
65036;DHT22;51603;49.300;8.880;2023-01-28T05:20:08;2.00;99.90
65036;DHT22;51603;49.300;8.880;2023-01-28T05:22:34;2.00;99.90
65036;DHT22;51603;49.300;8.880;2023-01-28T05:24:59;2.00;99.90
65036;DHT22;51603;49.300;8.880;2023-01-28T05:27:26;2.00;99.90
65036;DHT22;51603;49.300;8.880;2023-01-28T05:29:51;2.00;99.90
65036;DHT22;51603;49.300;8.880;2023-01-28T05:32:17;2.00;99.90
65036;DHT22;51603;49.300;8.880;2023-01-28T05:34:42;1.90;99.90
65036;DHT22;51603;49.300;8.880;2023-01-28T05:37:08;1.90;99.90
65036;DHT22;51603;49.300;8.880;2023-01-28T05:39:33;1.90;99.90
65036;DHT22;51603;49.300;8.880;2023-01-28T05:41:59;1.90;99.90
65036;DHT22;51603;49.300;8.880;2023-01-28T05:44:24;1.90;99.90
65036;DHT22;51603;49.300;8.880;2023-01-28T05:46:50;2.00;99.90
65036;DHT22;51603;49.300;8.880;2023-01-28T05:49:15;2.00;99.90
65036;DHT22;51603;49.300;8.880;2023-01-28T05:51:41;2.00;99.90
65036;DHT22;51603;49.300;8.880;2023-01-28T05:54:07;2.00;99.90
65036;DHT22;51603;49.300;8.880;2023-01-28T05:56:33;2.00;99.90
65036;DHT22;51603;49.300;8.880;2023-01-28T05:59:01;2.00;99.90
65036;DHT22;51603;49.300;8.880;2023-01-28T06:01:27;2.00;99.90
65036;DHT22;51603;49.300;8.880;2023-01-28T06:03:52;2.00;99.90
65036;DHT22;51603;49.300;8.880;2023-01-28T06:06:18;2.00;99.90
65036;DHT22;51603;49.300;8.880;2023-01-28T06:08:44;2.00;99.90
65036;DHT22;51603;49.300;8.880;2023-01-28T06:11:09;2.00;99.90
65036;DHT22;51603;49.300;8.880;2023-01-28T06:13:35;2.00;99.90
65036;DHT22;51603;49.300;8.880;2023-01-28T06:16:01;2.00;99.90
65036;DHT22;51603;49.300;8.880;2023-01-28T06:18:26;2.00;99.90
65036;DHT22;51603;49.300;8.880;2023-01-28T06:20:52;2.00;99.90
65036;DHT22;51603;49.300;8.880;2023-01-28T06:23:17;2.00;99.90
65036;DHT22;51603;49.300;8.880;2023-01-28T06:25:43;2.00;99.90
65036;DHT22;51603;49.300;8.880;2023-01-28T06:28:08;2.00;99.90
65036;DHT22;51603;49.300;8.880;2023-01-28T06:30:34;2.00;99.90
65036;DHT22;51603;49.300;8.880;2023-01-28T06:33:00;2.00;99.90
65036;DHT22;51603;49.300;8.880;2023-01-28T06:35:25;2.00;99.90
65036;DHT22;51603;49.300;8.880;2023-01-28T06:37:52;2.00;99.90
65036;DHT22;51603;49.300;8.880;2023-01-28T06:40:17;2.00;99.90
65036;DHT22;51603;49.300;8.880;2023-01-28T06:42:44;2.00;99.90
65036;DHT22;51603;49.300;8.880;2023-01-28T06:45:09;2.00;99.90
65036;DHT22;51603;49.300;8.880;2023-01-28T06:47:37;2.00;99.90
65036;DHT22;51603;49.300;8.880;2023-01-28T06:50:03;2.00;99.90
65036;DHT22;51603;49.300;8.880;2023-01-28T06:52:29;2.00;99.90
65036;DHT22;51603;49.300;8.880;2023-01-28T06:54:54;2.10;99.90
65036;DHT22;51603;49.300;8.880;2023-01-28T06:57:20;2.00;99.90
65036;DHT22;51603;49.300;8.880;2023-01-28T06:59:45;2.00;99.90
65036;DHT22;51603;49.300;8.880;2023-01-28T07:02:11;2.00;99.90
65036;DHT22;51603;49.300;8.880;2023-01-28T07:04:36;2.10;99.90
65036;DHT22;51603;49.300;8.880;2023-01-28T07:07:02;2.10;99.90
65036;DHT22;51603;49.300;8.880;2023-01-28T07:09:28;2.00;99.90
65036;DHT22;51603;49.300;8.880;2023-01-28T07:11:53;2.00;99.90
65036;DHT22;51603;49.300;8.880;2023-01-28T07:14:19;2.00;99.90
65036;DHT22;51603;49.300;8.880;2023-01-28T07:16:44;2.00;99.90
65036;DHT22;51603;49.300;8.880;2023-01-28T07:19:10;2.00;99.90
65036;DHT22;51603;49.300;8.880;2023-01-28T07:21:35;1.90;99.90
65036;DHT22;51603;49.300;8.880;2023-01-28T07:24:01;1.90;99.90
65036;DHT22;51603;49.300;8.880;2023-01-28T07:26:29;1.90;99.90
65036;DHT22;51603;49.300;8.880;2023-01-28T07:28:55;1.90;99.90
65036;DHT22;51603;49.300;8.880;2023-01-28T07:31:20;1.90;99.90
65036;DHT22;51603;49.300;8.880;2023-01-28T07:33:46;1.90;99.90
65036;DHT22;51603;49.300;8.880;2023-01-28T07:36:11;1.90;99.90
65036;DHT22;51603;49.300;8.880;2023-01-28T07:38:37;1.90;99.90
65036;DHT22;51603;49.300;8.880;2023-01-28T07:41:02;1.90;99.90
65036;DHT22;51603;49.300;8.880;2023-01-28T07:43:28;1.90;99.90
65036;DHT22;51603;49.300;8.880;2023-01-28T07:45:53;1.90;99.90
65036;DHT22;51603;49.300;8.880;2023-01-28T07:48:19;1.90;99.90
65036;DHT22;51603;49.300;8.880;2023-01-28T07:50:45;1.90;99.90
65036;DHT22;51603;49.300;8.880;2023-01-28T07:53:13;1.90;99.90
65036;DHT22;51603;49.300;8.880;2023-01-28T07:55:38;1.90;99.90
65036;DHT22;51603;49.300;8.880;2023-01-28T07:58:06;1.90;99.90
65036;DHT22;51603;49.300;8.880;2023-01-28T08:00:34;2.00;99.90
65036;DHT22;51603;49.300;8.880;2023-01-28T08:03:03;2.00;99.90
65036;DHT22;51603;49.300;8.880;2023-01-28T08:05:41;2.00;99.90
65036;DHT22;51603;49.300;8.880;2023-01-28T08:08:09;2.00;99.90
65036;DHT22;51603;49.300;8.880;2023-01-28T08:10:37;2.00;99.90
65036;DHT22;51603;49.300;8.880;2023-01-28T08:13:03;2.00;99.90
65036;DHT22;51603;49.300;8.880;2023-01-28T08:15:29;2.00;99.90
65036;DHT22;51603;49.300;8.880;2023-01-28T08:17:57;2.00;99.90
65036;DHT22;51603;49.300;8.880;2023-01-28T08:20:24;2.10;99.90
65036;DHT22;51603;49.300;8.880;2023-01-28T08:22:50;2.10;99.90
65036;DHT22;51603;49.300;8.880;2023-01-28T08:25:15;2.10;99.90
65036;DHT22;51603;49.300;8.880;2023-01-28T08:27:41;2.10;99.90
65036;DHT22;51603;49.300;8.880;2023-01-28T08:30:07;2.10;99.90
65036;DHT22;51603;49.300;8.880;2023-01-28T08:32:34;2.10;99.90
65036;DHT22;51603;49.300;8.880;2023-01-28T08:35:00;2.10;99.90
65036;DHT22;51603;49.300;8.880;2023-01-28T08:37:26;2.10;99.90
65036;DHT22;51603;49.300;8.880;2023-01-28T08:39:51;2.10;99.90
65036;DHT22;51603;49.300;8.880;2023-01-28T08:42:17;2.10;99.90
65036;DHT22;51603;49.300;8.880;2023-01-28T08:44:42;2.10;99.90
65036;DHT22;51603;49.300;8.880;2023-01-28T08:47:08;2.10;99.90
65036;DHT22;51603;49.300;8.880;2023-01-28T08:49:34;2.10;99.90
65036;DHT22;51603;49.300;8.880;2023-01-28T08:51:59;2.10;99.90
65036;DHT22;51603;49.300;8.880;2023-01-28T08:54:25;2.10;99.90
65036;DHT22;51603;49.300;8.880;2023-01-28T08:56:50;2.20;99.90
65036;DHT22;51603;49.300;8.880;2023-01-28T08:59:16;2.20;99.90
65036;DHT22;51603;49.300;8.880;2023-01-28T09:01:42;2.20;99.90
65036;DHT22;51603;49.300;8.880;2023-01-28T09:04:08;2.20;99.90
65036;DHT22;51603;49.300;8.880;2023-01-28T09:06:33;2.20;99.90
65036;DHT22;51603;49.300;8.880;2023-01-28T09:08:59;2.20;99.90
65036;DHT22;51603;49.300;8.880;2023-01-28T09:11:26;2.20;99.90
65036;DHT22;51603;49.300;8.880;2023-01-28T09:13:51;2.20;99.90
65036;DHT22;51603;49.300;8.880;2023-01-28T09:16:17;2.20;99.90
65036;DHT22;51603;49.300;8.880;2023-01-28T09:18:43;2.30;99.90
65036;DHT22;51603;49.300;8.880;2023-01-28T09:21:08;2.20;99.90
65036;DHT22;51603;49.300;8.880;2023-01-28T09:23:35;2.20;99.90
65036;DHT22;51603;49.300;8.880;2023-01-28T09:26:01;2.20;99.90
65036;DHT22;51603;49.300;8.880;2023-01-28T09:28:27;2.20;99.90
65036;DHT22;51603;49.300;8.880;2023-01-28T09:31:10;2.20;99.90
65036;DHT22;51603;49.300;8.880;2023-01-28T09:33:37;2.20;99.90
65036;DHT22;51603;49.300;8.880;2023-01-28T09:36:05;2.20;99.90
65036;DHT22;51603;49.300;8.880;2023-01-28T09:38:31;2.30;99.90
65036;DHT22;51603;49.300;8.880;2023-01-28T09:40:59;2.30;99.90
65036;DHT22;51603;49.300;8.880;2023-01-28T09:45:59;2.30;99.90
65036;DHT22;51603;49.300;8.880;2023-01-28T09:48:30;2.30;99.90
65036;DHT22;51603;49.300;8.880;2023-01-28T09:50:58;2.30;99.90
65036;DHT22;51603;49.300;8.880;2023-01-28T09:53:31;2.30;99.90
65036;DHT22;51603;49.300;8.880;2023-01-28T09:58:26;2.20;99.90
65036;DHT22;51603;49.300;8.880;2023-01-28T10:03:53;2.20;99.90
65036;DHT22;51603;49.300;8.880;2023-01-28T10:14:57;2.30;99.90
65036;DHT22;51603;49.300;8.880;2023-01-28T10:17:38;2.30;99.90
65036;DHT22;51603;49.300;8.880;2023-01-28T10:20:27;2.30;99.90
65036;DHT22;51603;49.300;8.880;2023-01-28T10:25:46;2.30;99.90
65036;DHT22;51603;49.300;8.880;2023-01-28T10:28:24;2.30;99.90
65036;DHT22;51603;49.300;8.880;2023-01-28T10:30:51;2.40;99.90
65036;DHT22;51603;49.300;8.880;2023-01-28T10:33:23;2.40;99.90
65036;DHT22;51603;49.300;8.880;2023-01-28T10:35:55;2.40;99.90
65036;DHT22;51603;49.300;8.880;2023-01-28T10:38:22;2.40;99.90
65036;DHT22;51603;49.300;8.880;2023-01-28T10:40:49;2.40;99.90
65036;DHT22;51603;49.300;8.880;2023-01-28T10:43:28;2.40;99.90
65036;DHT22;51603;49.300;8.880;2023-01-28T10:48:36;2.40;99.90
65036;DHT22;51603;49.300;8.880;2023-01-28T10:51:03;2.40;99.90
65036;DHT22;51603;49.300;8.880;2023-01-28T10:53:37;2.40;99.90
65036;DHT22;51603;49.300;8.880;2023-01-28T10:56:05;2.40;99.90
65036;DHT22;51603;49.300;8.880;2023-01-28T10:58:35;2.40;99.90
65036;DHT22;51603;49.300;8.880;2023-01-28T11:01:05;2.40;99.90
65036;DHT22;51603;49.300;8.880;2023-01-28T11:03:32;2.40;99.90
65036;DHT22;51603;49.300;8.880;2023-01-28T11:06:01;2.50;99.90
65036;DHT22;51603;49.300;8.880;2023-01-28T11:08:28;2.50;99.90
65036;DHT22;51603;49.300;8.880;2023-01-28T11:10:55;2.50;99.90
65036;DHT22;51603;49.300;8.880;2023-01-28T11:13:25;2.50;99.90
65036;DHT22;51603;49.300;8.880;2023-01-28T11:16:02;2.50;99.90
65036;DHT22;51603;49.300;8.880;2023-01-28T11:18:30;2.50;99.90
65036;DHT22;51603;49.300;8.880;2023-01-28T11:21:03;2.50;99.90
65036;DHT22;51603;49.300;8.880;2023-01-28T11:23:33;2.50;99.90
65036;DHT22;51603;49.300;8.880;2023-01-28T11:26:04;2.50;99.90
65036;DHT22;51603;49.300;8.880;2023-01-28T11:28:30;2.50;99.90
65036;DHT22;51603;49.300;8.880;2023-01-28T11:30:58;2.50;99.90
65036;DHT22;51603;49.300;8.880;2023-01-28T11:33:30;2.50;99.90
65036;DHT22;51603;49.300;8.880;2023-01-28T11:36:04;2.60;99.90
65036;DHT22;51603;49.300;8.880;2023-01-28T11:38:30;2.60;99.90
65036;DHT22;51603;49.300;8.880;2023-01-28T11:40:57;2.60;99.90
65036;DHT22;51603;49.300;8.880;2023-01-28T11:43:25;2.70;99.90
65036;DHT22;51603;49.300;8.880;2023-01-28T11:51:29;2.70;99.90
65036;DHT22;51603;49.300;8.880;2023-01-28T11:54:19;2.70;99.90
65036;DHT22;51603;49.300;8.880;2023-01-28T12:13:23;2.70;99.90
65036;DHT22;51603;49.300;8.880;2023-01-28T12:24:41;2.80;99.90
65036;DHT22;51603;49.300;8.880;2023-01-28T12:27:39;2.80;99.90
65036;DHT22;51603;49.300;8.880;2023-01-28T12:30:30;2.80;99.90
65036;DHT22;51603;49.300;8.880;2023-01-28T12:35:49;3.00;99.90
65036;DHT22;51603;49.300;8.880;2023-01-28T12:41:23;3.10;99.90
65036;DHT22;51603;49.300;8.880;2023-01-28T12:44:05;3.20;99.90
65036;DHT22;51603;49.300;8.880;2023-01-28T12:46:47;3.20;99.90
65036;DHT22;51603;49.300;8.880;2023-01-28T12:49:25;3.10;99.90
65036;DHT22;51603;49.300;8.880;2023-01-28T12:52:14;3.10;99.90
65036;DHT22;51603;49.300;8.880;2023-01-28T12:57:34;3.20;99.90
65036;DHT22;51603;49.300;8.880;2023-01-28T13:00:29;3.30;99.90
65036;DHT22;51603;49.300;8.880;2023-01-28T13:03:27;3.20;99.90
65036;DHT22;51603;49.300;8.880;2023-01-28T13:05:59;3.20;99.90
65036;DHT22;51603;49.300;8.880;2023-01-28T13:08:28;3.20;99.90
65036;DHT22;51603;49.300;8.880;2023-01-28T13:10:55;3.10;99.90
65036;DHT22;51603;49.300;8.880;2023-01-28T13:15:54;3.10;99.90
65036;DHT22;51603;49.300;8.880;2023-01-28T13:21:28;3.00;99.90
65036;DHT22;51603;49.300;8.880;2023-01-28T13:26:48;3.00;99.90
65036;DHT22;51603;49.300;8.880;2023-01-28T13:29:26;3.00;99.90
65036;DHT22;51603;49.300;8.880;2023-01-28T13:31:54;3.10;99.90
65036;DHT22;51603;49.300;8.880;2023-01-28T13:34:32;3.10;99.90
65036;DHT22;51603;49.300;8.880;2023-01-28T13:37:16;3.10;99.90
65036;DHT22;51603;49.300;8.880;2023-01-28T13:39:51;3.10;99.90
65036;DHT22;51603;49.300;8.880;2023-01-28T13:42:25;3.10;99.90
65036;DHT22;51603;49.300;8.880;2023-01-28T13:44:51;3.10;99.90
65036;DHT22;51603;49.300;8.880;2023-01-28T13:47:31;3.10;99.90
65036;DHT22;51603;49.300;8.880;2023-01-28T13:50:01;3.10;99.90
65036;DHT22;51603;49.300;8.880;2023-01-28T13:52:54;3.10;99.90
65036;DHT22;51603;49.300;8.880;2023-01-28T13:55:24;3.00;99.90
65036;DHT22;51603;49.300;8.880;2023-01-28T14:10:03;3.10;99.90
65036;DHT22;51603;49.300;8.880;2023-01-28T14:15:34;3.00;99.90
65036;DHT22;51603;49.300;8.880;2023-01-28T14:18:32;3.00;99.90
65036;DHT22;51603;49.300;8.880;2023-01-28T14:21:01;2.90;99.90
65036;DHT22;51603;49.300;8.880;2023-01-28T14:23:27;2.90;99.90
65036;DHT22;51603;49.300;8.880;2023-01-28T14:31:36;2.80;99.90
65036;DHT22;51603;49.300;8.880;2023-01-28T14:34:22;2.80;99.90
65036;DHT22;51603;49.300;8.880;2023-01-28T14:36:49;2.70;99.90
65036;DHT22;51603;49.300;8.880;2023-01-28T14:39:26;2.70;99.90
65036;DHT22;51603;49.300;8.880;2023-01-28T14:41:54;2.60;99.90
65036;DHT22;51603;49.300;8.880;2023-01-28T14:52:23;2.60;99.90
65036;DHT22;51603;49.300;8.880;2023-01-28T14:55:33;2.50;99.90
65036;DHT22;51603;49.300;8.880;2023-01-28T14:58:07;2.60;99.90
65036;DHT22;51603;49.300;8.880;2023-01-28T15:00:34;2.50;99.90
65036;DHT22;51603;49.300;8.880;2023-01-28T15:03:08;2.50;99.90
65036;DHT22;51603;49.300;8.880;2023-01-28T15:05:35;2.50;99.90
65036;DHT22;51603;49.300;8.880;2023-01-28T15:08:01;2.40;99.90
65036;DHT22;51603;49.300;8.880;2023-01-28T15:10:29;2.40;99.90
65036;DHT22;51603;49.300;8.880;2023-01-28T15:13:02;2.30;99.90
65036;DHT22;51603;49.300;8.880;2023-01-28T15:15:32;2.30;99.90
65036;DHT22;51603;49.300;8.880;2023-01-28T15:18:20;2.30;99.90
65036;DHT22;51603;49.300;8.880;2023-01-28T15:20:51;2.30;99.90
65036;DHT22;51603;49.300;8.880;2023-01-28T15:23:19;2.20;99.90
65036;DHT22;51603;49.300;8.880;2023-01-28T15:25:46;2.20;99.90
65036;DHT22;51603;49.300;8.880;2023-01-28T15:28:19;2.20;99.90
65036;DHT22;51603;49.300;8.880;2023-01-28T15:30:47;2.20;99.90
65036;DHT22;51603;49.300;8.880;2023-01-28T15:33:14;2.10;99.90
65036;DHT22;51603;49.300;8.880;2023-01-28T15:36:08;2.10;99.90
65036;DHT22;51603;49.300;8.880;2023-01-28T15:38:34;2.10;99.90
65036;DHT22;51603;49.300;8.880;2023-01-28T15:41:01;2.10;99.90
65036;DHT22;51603;49.300;8.880;2023-01-28T15:43:30;2.10;99.90
65036;DHT22;51603;49.300;8.880;2023-01-28T15:45:57;2.00;99.90
65036;DHT22;51603;49.300;8.880;2023-01-28T15:48:31;2.10;99.90
65036;DHT22;51603;49.300;8.880;2023-01-28T15:51:03;2.00;99.90
65036;DHT22;51603;49.300;8.880;2023-01-28T15:53:33;2.00;99.90
65036;DHT22;51603;49.300;8.880;2023-01-28T15:56:07;2.00;99.90
65036;DHT22;51603;49.300;8.880;2023-01-28T15:58:33;2.00;99.90
65036;DHT22;51603;49.300;8.880;2023-01-28T16:03:33;1.90;99.90
65036;DHT22;51603;49.300;8.880;2023-01-28T16:08:41;1.90;99.90
65036;DHT22;51603;49.300;8.880;2023-01-28T16:11:09;1.90;99.90
65036;DHT22;51603;49.300;8.880;2023-01-28T16:13:40;1.90;99.90
65036;DHT22;51603;49.300;8.880;2023-01-28T16:16:07;1.90;99.90
65036;DHT22;51603;49.300;8.880;2023-01-28T16:18:48;1.80;99.90
65036;DHT22;51603;49.300;8.880;2023-01-28T16:21:26;1.90;99.90
65036;DHT22;51603;49.300;8.880;2023-01-28T16:24:04;1.80;99.90
65036;DHT22;51603;49.300;8.880;2023-01-28T16:26:32;1.80;99.90
65036;DHT22;51603;49.300;8.880;2023-01-28T16:29:13;1.80;99.90
65036;DHT22;51603;49.300;8.880;2023-01-28T16:31:39;1.80;99.90
65036;DHT22;51603;49.300;8.880;2023-01-28T16:34:05;1.80;99.90
65036;DHT22;51603;49.300;8.880;2023-01-28T16:36:30;1.80;99.90
65036;DHT22;51603;49.300;8.880;2023-01-28T16:38:56;1.80;99.90
65036;DHT22;51603;49.300;8.880;2023-01-28T16:41:27;1.70;99.90
65036;DHT22;51603;49.300;8.880;2023-01-28T16:43:53;1.70;99.90
65036;DHT22;51603;49.300;8.880;2023-01-28T16:46:19;1.70;99.90
65036;DHT22;51603;49.300;8.880;2023-01-28T16:48:45;1.70;99.90
65036;DHT22;51603;49.300;8.880;2023-01-28T16:51:15;1.70;99.90
65036;DHT22;51603;49.300;8.880;2023-01-28T16:53:41;1.70;99.90
65036;DHT22;51603;49.300;8.880;2023-01-28T16:56:13;1.70;99.90
65036;DHT22;51603;49.300;8.880;2023-01-28T16:58:39;1.70;99.90
65036;DHT22;51603;49.300;8.880;2023-01-28T17:01:05;1.70;99.90
65036;DHT22;51603;49.300;8.880;2023-01-28T17:03:30;1.70;99.90
65036;DHT22;51603;49.300;8.880;2023-01-28T17:05:56;1.70;99.90
65036;DHT22;51603;49.300;8.880;2023-01-28T17:08:22;1.70;99.90
65036;DHT22;51603;49.300;8.880;2023-01-28T17:10:54;1.70;99.90
65036;DHT22;51603;49.300;8.880;2023-01-28T17:13:20;1.70;99.90
65036;DHT22;51603;49.300;8.880;2023-01-28T17:15:45;1.70;99.90
65036;DHT22;51603;49.300;8.880;2023-01-28T17:18:11;1.70;99.90
65036;DHT22;51603;49.300;8.880;2023-01-28T17:20:37;1.60;99.90
65036;DHT22;51603;49.300;8.880;2023-01-28T17:23:10;1.60;99.90
65036;DHT22;51603;49.300;8.880;2023-01-28T17:25:41;1.60;99.90
65036;DHT22;51603;49.300;8.880;2023-01-28T17:28:07;1.60;99.90
65036;DHT22;51603;49.300;8.880;2023-01-28T17:30:34;1.60;99.90
65036;DHT22;51603;49.300;8.880;2023-01-28T17:33:02;1.60;99.90
65036;DHT22;51603;49.300;8.880;2023-01-28T17:35:28;1.60;99.90
65036;DHT22;51603;49.300;8.880;2023-01-28T17:37:55;1.60;99.90
65036;DHT22;51603;49.300;8.880;2023-01-28T17:40:21;1.60;99.90
65036;DHT22;51603;49.300;8.880;2023-01-28T17:42:47;1.60;99.90
65036;DHT22;51603;49.300;8.880;2023-01-28T17:45:12;1.50;99.90
65036;DHT22;51603;49.300;8.880;2023-01-28T17:47:38;1.50;99.90
65036;DHT22;51603;49.300;8.880;2023-01-28T17:50:04;1.50;99.90
65036;DHT22;51603;49.300;8.880;2023-01-28T17:52:30;1.50;99.90
65036;DHT22;51603;49.300;8.880;2023-01-28T17:54:56;1.50;99.90
65036;DHT22;51603;49.300;8.880;2023-01-28T17:57:21;1.40;99.90